Time;durP1;ratioP1;P1;durP2;ratioP2;P2;SDS_P1;SDS_P2;PMS_P1;PMS_P2;Temp;Humidity;BMP_temperature;BMP_pressure;BME280_temperature;BME280_humidity;BME280_pressure;Samples;Min_cycle;Max_cycle;Signal;HPM_P1;HPM_P2
2021/12/31 00:02:39;;;;;;;7.80;4.67;;;5.60;92.10;;;;;;6341225;28;20189;-65
2021/12/31 00:05:40;;;;;;;6.13;4.37;;;5.50;92.10;;;;;;6340491;28;20172;-65
2021/12/31 00:08:41;;;;;;;6.20;4.77;;;5.50;92.30;;;;;;6306879;28;20205;-66
2021/12/31 00:11:42;;;;;;;6.97;6.13;;;5.50;92.50;;;;;;6319277;28;20266;-64
2021/12/31 00:14:43;;;;;;;5.67;5.17;;;5.60;92.50;;;;;;6300360;28;20201;-64
2021/12/31 00:17:44;;;;;;;6.40;5.20;;;5.50;92.40;;;;;;6318928;28;20197;-64
2021/12/31 00:20:45;;;;;;;5.33;4.60;;;5.50;92.40;;;;;;6302818;28;20269;-64
2021/12/31 00:23:46;;;;;;;9.40;4.93;;;5.60;92.50;;;;;;6302929;28;20188;-64
2021/12/31 00:26:47;;;;;;;7.20;5.03;;;5.40;92.10;;;;;;6303056;28;20189;-64
2021/12/31 00:29:47;;;;;;;5.77;4.30;;;5.30;91.90;;;;;;6305808;28;20443;-63
2021/12/31 00:32:48;;;;;;;6.70;4.23;;;5.30;92.50;;;;;;6277425;28;20212;-63
2021/12/31 00:35:50;;;;;;;5.27;4.00;;;5.30;91.90;;;;;;6310642;28;20185;-63
2021/12/31 00:38:50;;;;;;;7.73;4.17;;;5.20;92.40;;;;;;6305322;28;20203;-65
2021/12/31 00:41:51;;;;;;;6.23;4.57;;;5.20;92.60;;;;;;6285609;28;20188;-64
2021/12/31 00:44:52;;;;;;;4.70;4.17;;;5.10;92.30;;;;;;6299255;28;20192;-65
2021/12/31 00:47:54;;;;;;;4.50;4.10;;;5.10;92.40;;;;;;6282804;28;20233;-65
2021/12/31 00:50:56;;;;;;;6.53;4.73;;;5.10;92.10;;;;;;6285833;28;20193;-65
2021/12/31 00:53:57;;;;;;;4.77;4.37;;;5.10;92.10;;;;;;6302441;28;20206;-65
2021/12/31 00:57:02;;;;;;;7.23;4.40;;;5.10;92.60;;;;;;6285638;28;20192;-65
2021/12/31 01:00:06;;;;;;;4.90;4.17;;;5.00;92.40;;;;;;6302808;28;20221;-65
2021/12/31 01:03:07;;;;;;;4.77;3.67;;;5.10;92.40;;;;;;6297727;28;20282;-65
2021/12/31 01:06:08;;;;;;;6.50;4.77;;;5.10;92.40;;;;;;6324883;28;20197;-65
2021/12/31 01:09:09;;;;;;;6.03;4.47;;;5.00;92.10;;;;;;6310003;28;20244;-65
2021/12/31 01:12:11;;;;;;;5.17;4.57;;;5.00;92.30;;;;;;6322625;28;20230;-64
2021/12/31 01:15:21;;;;;;;7.00;4.60;;;4.90;92.30;;;;;;6333924;28;20276;-64
2021/12/31 01:18:27;;;;;;;6.97;4.73;;;4.90;92.70;;;;;;6365976;27;20192;-64
2021/12/31 01:21:28;;;;;;;5.27;4.77;;;4.80;92.10;;;;;;6368818;27;20220;-64
2021/12/31 01:24:30;;;;;;;5.97;4.67;;;4.80;92.60;;;;;;6360954;27;20195;-65
2021/12/31 01:27:32;;;;;;;5.07;3.93;;;4.70;92.50;;;;;;6332960;28;20212;-65
2021/12/31 01:30:33;;;;;;;5.87;4.00;;;4.70;92.00;;;;;;6350674;28;20184;-65
2021/12/31 01:33:34;;;;;;;4.43;3.97;;;4.60;91.90;;;;;;6332670;28;20187;-65
2021/12/31 01:36:35;;;;;;;7.50;4.27;;;4.60;92.70;;;;;;6308292;28;20205;-64
2021/12/31 01:39:37;;;;;;;5.93;3.93;;;4.60;91.90;;;;;;6324750;28;20214;-65
2021/12/31 01:42:38;;;;;;;5.90;3.90;;;4.60;92.70;;;;;;6336108;28;20196;-64
2021/12/31 01:45:53;;;;;;;7.33;4.30;;;4.60;92.40;;;;;;6344191;28;20176;-65
2021/12/31 01:51:57;;;;;;;6.27;3.30;;;4.60;92.70;;;;;;6332594;28;20275;-64
2021/12/31 01:54:58;;;;;;;7.17;3.80;;;4.60;92.70;;;;;;6324096;28;20238;-65
2021/12/31 01:58:02;;;;;;;3.50;3.13;;;4.60;92.50;;;;;;6381936;27;20219;-65
2021/12/31 02:01:05;;;;;;;5.60;3.10;;;4.60;92.50;;;;;;6335271;28;20227;-64
2021/12/31 02:04:06;;;;;;;4.43;3.43;;;4.50;92.40;;;;;;6316266;28;20184;-63
2021/12/31 02:07:08;;;;;;;5.77;3.70;;;4.60;93.00;;;;;;6367154;28;20231;-64
2021/12/31 02:10:10;;;;;;;5.00;3.50;;;4.60;93.00;;;;;;6274644;28;1154251;-64
2021/12/31 02:13:11;;;;;;;4.37;3.33;;;4.70;93.10;;;;;;6332166;28;20199;-64
2021/12/31 02:16:13;;;;;;;5.87;3.20;;;4.70;93.20;;;;;;6368238;27;20275;-65
2021/12/31 02:19:16;;;;;;;6.73;4.23;;;4.70;93.20;;;;;;6368078;27;20229;-64
2021/12/31 02:22:25;;;;;;;4.40;3.73;;;4.50;92.10;;;;;;6368554;27;20187;-64
2021/12/31 02:25:27;;;;;;;4.77;3.37;;;4.50;92.80;;;;;;6369279;27;20182;-64
2021/12/31 02:28:28;;;;;;;4.70;3.50;;;4.50;93.00;;;;;;6332353;28;20191;-64
2021/12/31 02:31:30;;;;;;;4.47;2.47;;;4.50;92.70;;;;;;6340761;28;20214;-64
2021/12/31 02:34:31;;;;;;;6.30;3.67;;;4.50;92.80;;;;;;6350158;28;20199;-64
2021/12/31 02:37:32;;;;;;;3.57;2.67;;;4.40;92.50;;;;;;6327806;28;20199;-65
2021/12/31 02:40:33;;;;;;;4.77;3.07;;;4.40;92.70;;;;;;6366513;27;20218;-65
2021/12/31 02:43:35;;;;;;;6.30;3.50;;;4.40;92.60;;;;;;6354099;27;20199;-65
2021/12/31 02:46:35;;;;;;;4.83;3.23;;;4.40;92.50;;;;;;6349690;28;20705;-65
2021/12/31 02:49:39;;;;;;;5.83;4.60;;;4.40;92.50;;;;;;6363261;27;20287;-63
2021/12/31 02:52:41;;;;;;;6.27;4.80;;;4.40;92.20;;;;;;6324858;28;20244;-64
2021/12/31 02:55:44;;;;;;;9.43;6.43;;;4.30;92.40;;;;;;6348821;27;20192;-64
2021/12/31 02:58:45;;;;;;;6.83;6.00;;;4.30;92.40;;;;;;6324946;28;20192;-65
2021/12/31 03:01:47;;;;;;;10.30;6.40;;;4.30;92.60;;;;;;6358748;27;20353;-65
2021/12/31 03:04:49;;;;;;;6.70;5.03;;;4.20;92.30;;;;;;6337098;28;20287;-65
2021/12/31 03:07:51;;;;;;;6.03;5.03;;;4.10;92.40;;;;;;6344559;27;20191;-65
2021/12/31 03:10:55;;;;;;;8.63;5.60;;;4.10;92.40;;;;;;6367141;27;20236;-65
2021/12/31 03:13:59;;;;;;;8.97;5.63;;;4.10;92.00;;;;;;6349289;28;20231;-65
2021/12/31 03:17:00;;;;;;;6.73;5.13;;;4.00;92.30;;;;;;6383601;27;20191;-65
2021/12/31 03:20:13;;;;;;;6.53;4.73;;;3.90;91.30;;;;;;6357724;27;20224;-65
2021/12/31 03:23:14;;;;;;;4.77;4.20;;;3.80;92.00;;;;;;6332840;28;20188;-66
2021/12/31 03:26:15;;;;;;;5.10;4.30;;;3.90;92.10;;;;;;6366532;27;20213;-66
2021/12/31 03:29:16;;;;;;;4.23;3.83;;;3.90;92.30;;;;;;6371486;27;20280;-66
2021/12/31 03:32:17;;;;;;;4.53;3.67;;;3.90;92.30;;;;;;6336003;28;20199;-64
2021/12/31 03:35:18;;;;;;;5.17;3.10;;;3.90;92.30;;;;;;6366490;27;20193;-64
2021/12/31 03:38:19;;;;;;;5.47;3.40;;;3.90;92.50;;;;;;6383621;27;20190;-64
2021/12/31 03:41:20;;;;;;;3.70;3.00;;;3.90;92.50;;;;;;6331788;28;20222;-64
2021/12/31 03:44:21;;;;;;;4.83;3.50;;;3.80;92.40;;;;;;6332042;28;20219;-64
2021/12/31 03:47:22;;;;;;;4.13;3.37;;;3.80;92.40;;;;;;6322859;28;20192;-65
2021/12/31 03:50:22;;;;;;;7.93;5.77;;;3.90;92.60;;;;;;6306592;28;20191;-65
2021/12/31 03:53:23;;;;;;;7.53;5.53;;;3.90;93.00;;;;;;6322848;28;20297;-65
2021/12/31 03:56:29;;;;;;;5.53;4.10;;;3.90;92.40;;;;;;6366120;27;20205;-65
2021/12/31 03:59:30;;;;;;;7.33;5.20;;;3.90;92.70;;;;;;6341365;27;20315;-65
2021/12/31 04:02:31;;;;;;;7.03;5.03;;;3.90;92.90;;;;;;6330867;28;20197;-65
2021/12/31 04:05:32;;;;;;;9.80;6.37;;;3.90;92.80;;;;;;6348841;28;20273;-65
2021/12/31 04:08:33;;;;;;;7.87;5.67;;;3.90;93.00;;;;;;6348332;28;20192;-65
2021/12/31 04:11:34;;;;;;;7.93;6.73;;;3.90;92.60;;;;;;6348582;27;20237;-65
2021/12/31 04:14:35;;;;;;;7.97;6.03;;;3.90;92.90;;;;;;6339859;28;20230;-65
2021/12/31 04:17:36;;;;;;;9.00;6.03;;;3.90;93.00;;;;;;6329274;28;20187;-64
2021/12/31 04:20:40;;;;;;;7.67;6.00;;;3.90;92.70;;;;;;6348362;28;20225;-65
2021/12/31 04:23:50;;;;;;;9.67;6.37;;;3.80;92.40;;;;;;6348759;28;20199;-64
2021/12/31 04:26:51;;;;;;;5.37;4.83;;;3.80;92.60;;;;;;6347134;28;20262;-64
2021/12/31 04:29:52;;;;;;;6.80;5.67;;;3.80;92.60;;;;;;6347866;28;20201;-64
2021/12/31 04:32:53;;;;;;;6.70;4.27;;;3.80;92.90;;;;;;6347944;28;20198;-64
2021/12/31 04:35:54;;;;;;;6.93;5.73;;;3.80;93.10;;;;;;6347583;28;20231;-64
2021/12/31 04:38:55;;;;;;;8.87;5.30;;;3.80;92.40;;;;;;6360547;27;20196;-64
2021/12/31 04:41:55;;;;;;;6.03;5.10;;;3.60;92.30;;;;;;6365579;27;20180;-64
2021/12/31 04:44:57;;;;;;;6.63;5.30;;;3.60;92.50;;;;;;6364866;27;20287;-64
2021/12/31 04:47:58;;;;;;;8.23;6.30;;;3.60;92.80;;;;;;6365206;27;20188;-64
2021/12/31 04:50:59;;;;;;;10.10;6.97;;;3.60;92.60;;;;;;6355726;28;20209;-64
2021/12/31 04:54:00;;;;;;;7.63;6.23;;;3.60;92.80;;;;;;6339826;28;20193;-64
2021/12/31 04:57:02;;;;;;;9.97;8.10;;;3.60;92.80;;;;;;6322227;28;20207;-66
2021/12/31 05:00:05;;;;;;;8.00;6.80;;;3.60;92.60;;;;;;6305864;28;20220;-64
2021/12/31 05:03:08;;;;;;;8.17;7.00;;;3.60;92.80;;;;;;6323342;28;20189;-64
2021/12/31 05:06:08;;;;;;;7.83;7.03;;;3.60;93.00;;;;;;6335135;28;20232;-64
2021/12/31 05:09:12;;;;;;;8.23;6.03;;;3.70;93.10;;;;;;6369497;27;20219;-64
2021/12/31 05:12:20;;;;;;;6.10;5.13;;;3.60;93.20;;;;;;6369192;27;20295;-64
2021/12/31 05:15:26;;;;;;;6.23;5.40;;;3.70;93.50;;;;;;6351517;28;20237;-66
2021/12/31 05:18:27;;;;;;;7.00;4.63;;;3.70;93.20;;;;;;6318648;28;20277;-66
2021/12/31 05:21:27;;;;;;;6.97;4.47;;;3.70;93.40;;;;;;6335056;28;20223;-66
2021/12/31 05:24:28;;;;;;;5.47;4.43;;;3.70;92.90;;;;;;6368953;27;20191;-65
2021/12/31 05:27:29;;;;;;;5.67;4.90;;;3.70;92.90;;;;;;6334604;28;20191;-65
2021/12/31 05:30:30;;;;;;;4.83;4.40;;;3.60;92.60;;;;;;6346202;27;20195;-65
2021/12/31 05:33:30;;;;;;;6.80;4.57;;;3.50;92.50;;;;;;6310065;28;20184;-64
2021/12/31 05:36:31;;;;;;;5.17;4.67;;;3.40;92.00;;;;;;6309542;28;20201;-64
2021/12/31 05:39:32;;;;;;;6.50;4.97;;;3.40;92.40;;;;;;6326512;28;20210;-64
2021/12/31 05:42:33;;;;;;;8.20;4.73;;;3.30;91.80;;;;;;6331859;28;20233;-64
2021/12/31 05:45:34;;;;;;;4.43;4.03;;;3.10;91.40;;;;;;6368839;27;20221;-64
2021/12/31 05:48:34;;;;;;;5.30;4.33;;;3.10;92.20;;;;;;6369149;27;20191;-63
2021/12/31 05:51:35;;;;;;;4.63;3.77;;;3.10;92.20;;;;;;6368975;27;20194;-63
2021/12/31 05:54:36;;;;;;;9.90;5.20;;;3.20;92.00;;;;;;6368510;27;20218;-64
2021/12/31 05:57:37;;;;;;;5.73;4.70;;;3.20;92.40;;;;;;6353096;27;20195;-65
2021/12/31 06:00:38;;;;;;;4.40;3.83;;;3.10;92.10;;;;;;6328614;28;20219;-65
2021/12/31 06:03:38;;;;;;;6.40;5.03;;;3.20;92.20;;;;;;6331653;28;20203;-69
2021/12/31 06:06:39;;;;;;;6.93;4.33;;;3.10;92.10;;;;;;6352678;27;20179;-69
2021/12/31 06:09:40;;;;;;;5.30;4.03;;;3.00;91.90;;;;;;6351155;28;20184;-67
2021/12/31 06:12:43;;;;;;;5.23;4.00;;;3.00;92.00;;;;;;6367487;27;20292;-66
2021/12/31 06:15:47;;;;;;;7.30;4.50;;;3.00;92.10;;;;;;6364454;27;20204;-66
2021/12/31 06:18:47;;;;;;;7.00;5.57;;;3.10;92.10;;;;;;6350967;28;20267;-66
2021/12/31 06:21:48;;;;;;;6.90;4.93;;;3.00;92.40;;;;;;6366474;27;20223;-66
2021/12/31 06:24:50;;;;;;;7.37;6.13;;;3.00;92.30;;;;;;6333892;28;20174;-66
2021/12/31 06:27:51;;;;;;;6.00;5.07;;;3.10;92.00;;;;;;6359146;27;20245;-66
2021/12/31 06:30:52;;;;;;;7.90;5.70;;;3.10;92.10;;;;;;6334009;28;20187;-66
2021/12/31 06:33:53;;;;;;;6.73;6.07;;;3.10;92.10;;;;;;6320199;28;20192;-66
2021/12/31 06:36:54;;;;;;;7.00;5.57;;;3.10;92.10;;;;;;6378132;27;20196;-66
2021/12/31 06:39:54;;;;;;;6.83;6.00;;;3.00;91.90;;;;;;6324468;28;20269;-66
2021/12/31 06:42:55;;;;;;;10.43;6.00;;;2.90;91.40;;;;;;6366705;27;20195;-66
2021/12/31 06:45:56;;;;;;;6.20;4.87;;;3.00;91.90;;;;;;6352407;27;20279;-65
2021/12/31 06:48:57;;;;;;;6.80;5.50;;;2.80;91.50;;;;;;6358611;27;20183;-65
2021/12/31 06:51:58;;;;;;;6.70;5.97;;;2.80;91.50;;;;;;6353225;27;20214;-65
2021/12/31 06:54:58;;;;;;;9.00;5.73;;;2.90;91.80;;;;;;6351998;27;20187;-65
2021/12/31 06:57:59;;;;;;;6.60;4.87;;;2.80;91.50;;;;;;6357211;27;20219;-65
2021/12/31 07:01:00;;;;;;;8.07;5.67;;;2.80;91.50;;;;;;6365775;27;20222;-65
2021/12/31 07:04:01;;;;;;;6.57;5.03;;;2.80;92.00;;;;;;6332696;28;20237;-65
2021/12/31 07:07:02;;;;;;;6.07;4.63;;;2.80;91.70;;;;;;6313290;28;20184;-65
2021/12/31 07:10:05;;;;;;;6.53;4.57;;;2.80;91.90;;;;;;6351764;27;20286;-65
2021/12/31 07:13:13;;;;;;;6.80;5.27;;;2.80;92.00;;;;;;6372589;27;20249;-65
2021/12/31 07:16:13;;;;;;;4.60;4.20;;;2.80;92.00;;;;;;6341617;28;20193;-65
2021/12/31 07:19:14;;;;;;;5.57;3.90;;;2.90;92.00;;;;;;6347909;28;20280;-65
2021/12/31 07:22:15;;;;;;;5.10;4.10;;;2.80;92.00;;;;;;6352610;27;20199;-65
2021/12/31 07:25:16;;;;;;;5.00;4.47;;;2.90;92.20;;;;;;6342507;27;20219;-65
2021/12/31 07:28:17;;;;;;;6.10;4.67;;;2.90;92.10;;;;;;6352786;27;20190;-65
2021/12/31 07:31:17;;;;;;;4.90;4.33;;;2.90;92.40;;;;;;6318258;28;20220;-65
2021/12/31 07:34:18;;;;;;;5.17;4.13;;;3.00;92.40;;;;;;6351843;27;20191;-65
2021/12/31 07:37:19;;;;;;;8.07;4.60;;;3.00;92.40;;;;;;6349302;28;20327;-65
2021/12/31 07:40:39;;;;;;;4.10;3.70;;;3.10;92.80;;;;;;6365733;27;20219;-65
2021/12/31 07:43:40;;;;;;;6.67;4.53;;;3.10;92.40;;;;;;6368825;27;20184;-65
2021/12/31 07:46:43;;;;;;;5.10;4.60;;;3.10;92.60;;;;;;6351660;27;20205;-64
2021/12/31 07:49:44;;;;;;;7.17;5.10;;;3.10;92.50;;;;;;6361471;27;20674;-65
2021/12/31 07:52:45;;;;;;;6.13;4.97;;;3.10;92.40;;;;;;6337147;28;20195;-64
2021/12/31 07:55:46;;;;;;;8.67;5.43;;;3.20;92.90;;;;;;6341833;27;20196;-65
2021/12/31 07:58:47;;;;;;;5.63;4.77;;;3.20;92.80;;;;;;6329008;28;20299;-66
2021/12/31 08:01:48;;;;;;;8.40;4.33;;;3.30;93.00;;;;;;6365357;27;20226;-66
2021/12/31 08:04:48;;;;;;;6.50;4.73;;;3.30;93.00;;;;;;6365816;27;20259;-66
2021/12/31 08:07:49;;;;;;;5.37;4.17;;;3.30;93.00;;;;;;6365136;27;20228;-66
2021/12/31 08:10:50;;;;;;;7.93;4.60;;;3.40;93.10;;;;;;6328960;28;20282;-66
2021/12/31 08:13:51;;;;;;;7.83;4.40;;;3.50;93.00;;;;;;6350506;28;20190;-65
2021/12/31 08:16:51;;;;;;;7.53;4.73;;;3.60;93.10;;;;;;6338940;28;20193;-65
2021/12/31 08:19:52;;;;;;;6.23;4.17;;;3.80;94.10;;;;;;6321100;28;20224;-65
2021/12/31 08:22:53;;;;;;;6.90;4.20;;;3.80;93.90;;;;;;6356744;27;20198;-65
2021/12/31 08:25:54;;;;;;;5.43;3.87;;;3.90;94.00;;;;;;6341517;28;20219;-66
2021/12/31 08:28:55;;;;;;;6.90;5.20;;;3.90;94.10;;;;;;6348039;28;20187;-65
2021/12/31 08:31:56;;;;;;;9.17;5.20;;;4.10;94.40;;;;;;6314970;28;20194;-65
2021/12/31 08:34:56;;;;;;;9.13;4.43;;;4.20;94.30;;;;;;6330174;28;20284;-66
2021/12/31 08:37:57;;;;;;;7.73;5.23;;;4.30;94.40;;;;;;6354323;27;20200;-66
2021/12/31 08:41:00;;;;;;;8.40;5.17;;;4.30;94.50;;;;;;6373681;27;20245;-65
2021/12/31 08:44:01;;;;;;;6.00;4.40;;;4.40;94.30;;;;;;6321513;28;20285;-66
2021/12/31 08:47:02;;;;;;;6.90;4.60;;;4.60;94.30;;;;;;6357052;27;20187;-65
2021/12/31 08:50:03;;;;;;;6.40;4.23;;;4.60;94.30;;;;;;6356386;27;20198;-65
2021/12/31 08:53:05;;;;;;;9.53;4.40;;;4.70;94.40;;;;;;6351150;28;20213;-65
2021/12/31 08:56:06;;;;;;;5.13;3.70;;;4.70;94.40;;;;;;6369068;27;20207;-66
2021/12/31 08:59:08;;;;;;;11.13;5.70;;;4.80;94.30;;;;;;6335406;28;20195;-66
2021/12/31 09:02:09;;;;;;;8.67;5.60;;;4.90;94.70;;;;;;6338083;28;20196;-66
2021/12/31 09:05:10;;;;;;;5.83;4.50;;;5.10;94.90;;;;;;6345963;28;20173;-65
2021/12/31 09:08:11;;;;;;;8.17;5.63;;;5.10;94.80;;;;;;6352619;28;20242;-64
2021/12/31 09:11:12;;;;;;;6.83;5.13;;;5.50;96.00;;;;;;6350189;28;20249;-65
2021/12/31 09:14:12;;;;;;;10.30;6.00;;;5.60;95.70;;;;;;6327440;28;20188;-64
2021/12/31 09:17:13;;;;;;;12.37;7.17;;;5.70;95.70;;;;;;6333100;28;20196;-65
2021/12/31 09:20:14;;;;;;;7.30;5.67;;;5.90;96.00;;;;;;6369961;27;20211;-65
2021/12/31 09:23:16;;;;;;;10.13;5.40;;;6.00;95.80;;;;;;6354483;27;20240;-65
2021/12/31 09:26:17;;;;;;;9.10;5.27;;;6.20;95.70;;;;;;6368663;27;20195;-65
2021/12/31 09:29:20;;;;;;;7.90;5.80;;;6.20;95.60;;;;;;6369217;27;20209;-65
2021/12/31 09:32:22;;;;;;;9.43;5.67;;;6.40;95.40;;;;;;6334678;28;20195;-66
2021/12/31 09:35:23;;;;;;;12.90;5.80;;;6.50;95.20;;;;;;6368437;27;20222;-66
2021/12/31 09:38:23;;;;;;;8.53;5.73;;;6.60;94.80;;;;;;6334052;28;20184;-64
2021/12/31 09:41:24;;;;;;;8.20;4.90;;;6.70;95.00;;;;;;6334189;28;20223;-64
2021/12/31 09:44:25;;;;;;;7.50;5.33;;;6.80;94.70;;;;;;6339107;28;20200;-65
2021/12/31 09:47:26;;;;;;;8.73;4.37;;;6.90;94.70;;;;;;6311640;28;20326;-64
2021/12/31 09:50:27;;;;;;;8.43;5.17;;;7.00;94.40;;;;;;6350295;27;20191;-64
2021/12/31 09:53:28;;;;;;;9.37;5.53;;;7.10;94.20;;;;;;6354519;27;20188;-64
2021/12/31 09:56:29;;;;;;;6.23;5.00;;;7.20;94.40;;;;;;6353668;27;20288;-64
2021/12/31 09:59:30;;;;;;;9.13;5.10;;;7.30;94.30;;;;;;6358496;27;20226;-64
2021/12/31 10:02:33;;;;;;;9.07;4.53;;;7.50;93.50;;;;;;6352854;27;20191;-65
2021/12/31 10:06:04;;;;;;;8.90;4.23;;;7.70;92.50;;;;;;6326324;28;20184;-64
2021/12/31 10:09:05;;;;;;;5.10;4.30;;;7.80;92.10;;;;;;6327142;28;20281;-64
2021/12/31 10:12:08;;;;;;;6.73;4.60;;;7.90;91.90;;;;;;6328701;28;20247;-65
2021/12/31 10:15:08;;;;;;;8.03;4.13;;;8.00;90.80;;;;;;6342458;28;20200;-64
2021/12/31 10:18:13;;;;;;;9.40;4.50;;;7.90;91.00;;;;;;6316469;28;20210;-65
2021/12/31 10:21:13;;;;;;;11.73;4.87;;;8.10;90.90;;;;;;6347369;27;20281;-64
2021/12/31 10:24:34;;;;;;;8.87;4.80;;;8.20;91.00;;;;;;6331024;28;20192;-64
2021/12/31 10:27:35;;;;;;;11.03;4.70;;;8.30;89.90;;;;;;6351898;27;20184;-64
2021/12/31 10:30:36;;;;;;;8.77;4.80;;;8.30;89.20;;;;;;6329942;28;20196;-64
2021/12/31 10:33:45;;;;;;;9.43;5.00;;;8.40;88.80;;;;;;6352445;27;20226;-64
2021/12/31 10:36:46;;;;;;;6.47;3.97;;;8.50;88.60;;;;;;6328451;28;20208;-64
2021/12/31 10:40:01;;;;;;;11.17;5.00;;;8.60;88.70;;;;;;6339841;28;20211;-64
2021/12/31 10:43:23;;;;;;;11.50;4.97;;;8.80;88.60;;;;;;6378140;27;20192;-65
2021/12/31 10:46:23;;;;;;;9.63;4.70;;;8.80;88.70;;;;;;6352395;27;20196;-63
2021/12/31 10:49:24;;;;;;;14.30;5.40;;;9.00;89.20;;;;;;6347152;27;20223;-65
2021/12/31 10:52:33;;;;;;;10.10;6.27;;;9.10;88.40;;;;;;6346574;27;20329;-66
2021/12/31 10:55:39;;;;;;;9.83;7.20;;;9.20;87.70;;;;;;6325119;28;20170;-65
2021/12/31 10:58:43;;;;;;;28.67;11.87;;;9.30;87.60;;;;;;6324639;28;20196;-64
2021/12/31 11:01:44;;;;;;;13.50;7.03;;;9.30;87.90;;;;;;6325922;28;20270;-64
2021/12/31 11:04:45;;;;;;;11.37;5.97;;;9.50;86.00;;;;;;6346827;27;20192;-64
2021/12/31 11:07:46;;;;;;;9.70;5.70;;;9.50;86.40;;;;;;6324586;28;20193;-64
2021/12/31 11:10:50;;;;;;;9.13;5.73;;;9.60;85.80;;;;;;6332452;28;20254;-64
2021/12/31 11:13:52;;;;;;;15.43;5.97;;;9.60;86.30;;;;;;6367112;27;20211;-64
2021/12/31 11:16:52;;;;;;;10.27;5.23;;;9.70;86.80;;;;;;6359885;27;20192;-64
2021/12/31 11:19:54;;;;;;;8.57;5.67;;;9.70;85.60;;;;;;6345167;27;20235;-64
2021/12/31 11:22:55;;;;;;;11.00;5.83;;;9.80;85.10;;;;;;6328826;28;20191;-64
2021/12/31 11:26:06;;;;;;;10.67;6.50;;;9.80;86.20;;;;;;6329661;28;20696;-65
2021/12/31 11:29:15;;;;;;;8.57;6.37;;;10.00;83.80;;;;;;6345591;28;20199;-65
2021/12/31 11:32:16;;;;;;;11.00;7.07;;;9.90;84.50;;;;;;6349278;28;20216;-64
2021/12/31 11:35:26;;;;;;;10.00;7.07;;;10.00;83.40;;;;;;6344996;27;20202;-64
2021/12/31 11:38:27;;;;;;;10.17;6.63;;;10.10;83.80;;;;;;6328683;28;20650;-63
2021/12/31 11:41:29;;;;;;;14.63;8.47;;;10.10;84.00;;;;;;6380852;27;20216;-64
2021/12/31 11:44:31;;;;;;;13.00;7.63;;;10.20;83.00;;;;;;6331602;28;20198;-64
2021/12/31 11:47:37;;;;;;;9.77;7.53;;;10.30;83.50;;;;;;6383030;27;20259;-64
2021/12/31 11:50:38;;;;;;;12.20;8.70;;;10.30;83.20;;;;;;6346620;27;20238;-65
2021/12/31 11:54:03;;;;;;;11.73;8.50;;;10.60;83.10;;;;;;6324041;28;21700;-65
2021/12/31 11:57:09;;;;;;;12.20;8.23;;;10.80;82.90;;;;;;6364817;27;20205;-65
2021/12/31 12:00:27;;;;;;;15.27;9.63;;;10.90;81.80;;;;;;6367584;27;20220;-65
2021/12/31 12:03:31;;;;;;;26.17;10.60;;;11.10;81.20;;;;;;6335454;28;20180;-66
2021/12/31 12:06:50;;;;;;;12.47;8.27;;;11.30;82.20;;;;;;6348789;28;20192;-55
2021/12/31 12:09:51;;;;;;;18.10;8.10;;;11.50;81.70;;;;;;6367885;27;20193;-69
2021/12/31 12:12:56;;;;;;;10.93;6.40;;;11.90;78.50;;;;;;6301513;28;20234;-69
2021/12/31 12:15:57;;;;;;;9.53;6.40;;;11.60;88.90;;;;;;6333504;28;20208;-71
2021/12/31 12:18:59;;;;;;;13.17;7.03;;;11.50;88.70;;;;;;6327890;28;20287;-70
2021/12/31 12:22:00;;;;;;;11.73;6.97;;;11.70;90.40;;;;;;6310762;28;20220;-69
2021/12/31 12:25:05;;;;;;;11.37;6.80;;;12.50;92.20;;;;;;6277011;28;20197;-70
2021/12/31 12:28:10;;;;;;;11.63;7.37;;;12.80;91.50;;;;;;6304927;28;20189;-71
2021/12/31 12:31:16;;;;;;;11.80;7.57;;;12.80;87.20;;;;;;6318619;28;20280;-71
2021/12/31 12:34:29;;;;;;;11.53;8.60;;;12.50;88.10;;;;;;6302311;28;20205;-70
2021/12/31 12:37:31;;;;;;;8.50;7.60;;;12.30;87.30;;;;;;6330946;28;20193;-73
2021/12/31 12:40:50;;;;;;;11.43;8.00;;;12.10;89.80;;;;;;6318760;28;20219;-73
2021/12/31 12:43:51;;;;;;;11.70;8.60;;;12.00;91.30;;;;;;6335607;28;20198;-72
2021/12/31 12:46:59;;;;;;;8.23;7.43;;;12.30;91.40;;;;;;6341454;28;20200;-73
2021/12/31 12:50:04;;;;;;;8.00;7.20;;;12.80;91.60;;;;;;6310131;28;20193;-73
2021/12/31 12:53:06;;;;;;;9.60;6.80;;;13.30;91.00;;;;;;6286502;28;20220;-72
2021/12/31 12:56:13;;;;;;;6.43;5.83;;;13.60;90.20;;;;;;6309326;28;20210;-72
2021/12/31 12:59:22;;;;;;;10.33;6.77;;;13.50;90.40;;;;;;6321636;28;20196;-71
2021/12/31 13:02:43;;;;;;;11.73;8.47;;;13.30;90.70;;;;;;6320888;28;20555;-71
2021/12/31 13:05:43;;;;;;;12.60;7.83;;;13.50;89.20;;;;;;6306329;28;20292;-71
2021/12/31 13:08:44;;;;;;;13.63;7.80;;;14.20;89.80;;;;;;6319198;28;20227;-71
2021/12/31 13:11:59;;;;;;;8.73;6.53;;;15.00;84.70;;;;;;6322898;28;20236;-71
2021/12/31 13:15:04;;;;;;;9.37;6.00;;;15.80;86.10;;;;;;6335215;28;20184;-70
2021/12/31 13:18:08;;;;;;;9.60;6.70;;;16.30;86.30;;;;;;6347824;28;20195;-69
2021/12/31 13:21:12;;;;;;;8.97;6.83;;;16.50;86.50;;;;;;6366562;27;20227;-69
2021/12/31 13:24:24;;;;;;;10.93;5.93;;;16.50;85.20;;;;;;6323766;28;20193;-69
2021/12/31 13:27:26;;;;;;;5.63;4.50;;;16.60;86.40;;;;;;6338691;28;20184;-69
2021/12/31 13:30:27;;;;;;;7.70;4.80;;;16.70;85.60;;;;;;6338652;28;20390;-68
2021/12/31 13:33:32;;;;;;;6.47;5.23;;;16.60;85.10;;;;;;6335206;28;20183;-61
2021/12/31 13:36:33;;;;;;;7.10;5.50;;;17.60;77.90;;;;;;6307196;28;20192;-58
2021/12/31 13:39:39;;;;;;;10.13;6.10;;;18.40;75.20;;;;;;6355714;27;20200;-58
2021/12/31 13:42:45;;;;;;;9.77;6.50;;;18.80;70.10;;;;;;6326370;28;20275;-60
2021/12/31 13:45:46;;;;;;;10.37;6.23;;;19.80;68.70;;;;;;6326194;28;20177;-60
2021/12/31 13:48:47;;;;;;;8.37;6.37;;;20.70;62.80;;;;;;6332176;28;20187;-60
2021/12/31 13:51:48;;;;;;;10.30;6.53;;;21.30;57.90;;;;;;6324665;28;20211;-60
2021/12/31 13:54:52;;;;;;;8.87;6.20;;;21.60;53.60;;;;;;6363235;27;20286;-59
2021/12/31 13:58:01;;;;;;;8.90;5.63;;;22.10;49.70;;;;;;6382209;27;20220;-59
2021/12/31 14:01:12;;;;;;;7.07;5.47;;;22.20;49.70;;;;;;6326145;28;20259;-59
2021/12/31 14:04:13;;;;;;;8.43;4.53;;;22.20;48.10;;;;;;6340298;28;20199;-59
2021/12/31 14:07:17;;;;;;;10.43;5.30;;;22.20;47.20;;;;;;6365013;27;20195;-59
2021/12/31 14:10:33;;;;;;;7.57;4.30;;;21.80;49.00;;;;;;6382042;27;20194;-59
2021/12/31 14:13:42;;;;;;;10.60;4.33;;;21.60;48.10;;;;;;6383126;27;20200;-60
2021/12/31 14:16:43;;;;;;;8.47;4.87;;;21.30;49.40;;;;;;6352811;27;20193;-59
2021/12/31 14:19:44;;;;;;;5.90;3.90;;;21.50;48.50;;;;;;6343193;28;20279;-59
2021/12/31 14:22:45;;;;;;;6.33;4.70;;;21.30;48.60;;;;;;6334323;28;20195;-59
2021/12/31 14:25:46;;;;;;;7.30;4.80;;;21.00;51.00;;;;;;6332057;28;20233;-59
2021/12/31 14:28:47;;;;;;;10.60;5.17;;;21.10;48.90;;;;;;6346945;27;20202;-60
2021/12/31 14:31:48;;;;;;;7.07;4.67;;;21.50;47.40;;;;;;6340595;28;20192;-60
2021/12/31 14:34:51;;;;;;;7.20;4.70;;;21.10;46.90;;;;;;6349871;27;20264;-59
2021/12/31 14:37:52;;;;;;;7.93;5.23;;;20.70;46.30;;;;;;6350757;27;20200;-60
2021/12/31 14:41:02;;;;;;;7.37;4.33;;;20.00;50.60;;;;;;6351475;27;20224;-60
2021/12/31 14:44:04;;;;;;;7.90;4.83;;;19.40;51.90;;;;;;6352887;27;20192;-59
2021/12/31 14:47:05;;;;;;;6.47;4.00;;;19.40;52.60;;;;;;6350162;27;20192;-60
2021/12/31 14:50:08;;;;;;;7.80;4.10;;;19.30;52.00;;;;;;6352068;27;20210;-59
2021/12/31 14:53:10;;;;;;;7.07;4.60;;;18.60;52.20;;;;;;6371166;27;20315;-59
2021/12/31 14:56:11;;;;;;;6.17;3.83;;;17.60;55.00;;;;;;6356437;27;20223;-59
2021/12/31 14:59:13;;;;;;;4.47;3.57;;;16.70;57.60;;;;;;6356773;27;20287;-59
2021/12/31 15:02:14;;;;;;;4.57;3.73;;;15.80;60.80;;;;;;6367114;27;20227;-59
2021/12/31 15:05:15;;;;;;;4.87;3.37;;;15.00;63.80;;;;;;6366190;27;20191;-60
2021/12/31 15:08:16;;;;;;;7.60;4.07;;;14.30;64.90;;;;;;6350039;28;20185;-59
2021/12/31 15:11:17;;;;;;;5.57;3.90;;;13.80;66.90;;;;;;6349091;28;20289;-59
2021/12/31 15:14:18;;;;;;;4.87;3.20;;;13.20;68.70;;;;;;6349411;27;20293;-60
2021/12/31 15:17:18;;;;;;;5.63;3.93;;;12.80;69.90;;;;;;6366635;27;20187;-59
2021/12/31 15:20:20;;;;;;;5.30;4.00;;;12.40;70.60;;;;;;6348518;27;20216;-59
2021/12/31 15:23:21;;;;;;;6.33;4.57;;;12.10;72.10;;;;;;6305818;28;20265;-60
2021/12/31 15:26:22;;;;;;;5.67;4.67;;;11.70;72.90;;;;;;6352702;27;20188;-58
2021/12/31 15:29:24;;;;;;;4.63;4.23;;;11.30;74.50;;;;;;6333210;28;20219;-58
2021/12/31 15:32:26;;;;;;;6.87;4.67;;;11.10;75.60;;;;;;6324615;28;20173;-58
2021/12/31 15:35:29;;;;;;;6.50;4.00;;;11.00;76.60;;;;;;6338235;27;20196;-58
2021/12/31 15:38:30;;;;;;;7.07;4.47;;;10.80;76.90;;;;;;6307003;28;20219;-58
2021/12/31 15:41:31;;;;;;;8.13;5.03;;;10.60;77.40;;;;;;6328877;28;20246;-59
2021/12/31 15:44:32;;;;;;;5.03;4.33;;;10.40;77.60;;;;;;6383417;27;20183;-59
2021/12/31 15:47:33;;;;;;;8.00;5.07;;;10.20;78.40;;;;;;6351540;27;20206;-59
2021/12/31 15:50:35;;;;;;;5.60;4.63;;;10.00;78.60;;;;;;6348771;28;20194;-58
2021/12/31 15:53:36;;;;;;;9.03;7.07;;;9.80;79.20;;;;;;6330265;28;20196;-59
2021/12/31 15:56:38;;;;;;;9.10;5.77;;;9.70;79.20;;;;;;6345419;27;20192;-59
2021/12/31 15:59:39;;;;;;;8.30;5.67;;;9.60;79.60;;;;;;6325697;28;20258;-59
2021/12/31 16:02:40;;;;;;;6.80;5.20;;;9.40;79.80;;;;;;6310217;28;20192;-60